Time;durP1;ratioP1;P1;durP2;ratioP2;P2;SDS_P1;SDS_P2;PMS_P1;PMS_P2;Temp;Humidity;BMP_temperature;BMP_pressure;BME280_temperature;BME280_humidity;BME280_pressure;Samples;Min_cycle;Max_cycle;Signal;HPM_P1;HPM_P2
2021/01/20 00:01:20;;;;;;;;;;;9.50;99.90;;;;;;5047981;28;19965;-70
2021/01/20 00:03:46;;;;;;;;;;;9.50;99.90;;;;;;5050091;28;20415;-69
2021/01/20 00:06:13;;;;;;;;;;;9.50;99.90;;;;;;5044922;28;19959;-69
2021/01/20 00:08:39;;;;;;;;;;;9.40;99.90;;;;;;5052301;28;20027;-70
2021/01/20 00:11:05;;;;;;;;;;;9.40;99.90;;;;;;5048229;28;20481;-70
2021/01/20 00:13:32;;;;;;;;;;;9.40;99.90;;;;;;5047611;28;19925;-70
2021/01/20 00:15:59;;;;;;;;;;;9.30;99.90;;;;;;5042948;28;20011;-70
2021/01/20 00:18:25;;;;;;;;;;;9.30;99.90;;;;;;5052082;28;19929;-70
2021/01/20 00:20:52;;;;;;;;;;;9.30;99.90;;;;;;5052017;28;19925;-70
2021/01/20 00:23:18;;;;;;;;;;;9.20;99.90;;;;;;5032392;28;19953;-70
2021/01/20 00:25:48;;;;;;;;;;;9.20;99.90;;;;;;5040312;28;19925;-70
2021/01/20 00:28:14;;;;;;;;;;;9.30;99.90;;;;;;5050944;28;20314;-70
2021/01/20 00:30:40;;;;;;;;;;;9.20;99.90;;;;;;5041377;28;20013;-70
2021/01/20 00:33:13;;;;;;;;;;;9.30;99.90;;;;;;5051369;28;20020;-70
2021/01/20 00:35:40;;;;;;;;;;;9.20;99.90;;;;;;5051965;28;20426;-70
2021/01/20 00:38:06;;;;;;;;;;;9.20;99.90;;;;;;5054911;28;19924;-70
2021/01/20 00:40:33;;;;;;;;;;;9.20;99.90;;;;;;5055400;28;20291;-70
2021/01/20 00:42:59;;;;;;;;;;;9.20;99.90;;;;;;5051914;28;19925;-70
2021/01/20 00:45:26;;;;;;;;;;;9.10;99.90;;;;;;5055133;28;19995;-70
2021/01/20 00:47:52;;;;;;;;;;;9.00;99.90;;;;;;5048455;28;19952;-70
2021/01/20 00:50:19;;;;;;;;;;;9.10;99.90;;;;;;5054837;28;20308;-71
2021/01/20 00:52:46;;;;;;;;;;;9.00;99.90;;;;;;5055221;28;19924;-70
2021/01/20 00:55:14;;;;;;;;;;;9.00;99.90;;;;;;5045326;28;19925;-70
2021/01/20 00:57:41;;;;;;;;;;;9.00;99.90;;;;;;5037807;28;19932;-70
2021/01/20 01:00:08;;;;;;;;;;;9.00;99.90;;;;;;5049148;28;19992;-70
2021/01/20 01:02:35;;;;;;;;;;;9.00;99.90;;;;;;5051576;28;19926;-70
2021/01/20 01:05:01;;;;;;;;;;;9.00;99.90;;;;;;5054236;28;20386;-71
2021/01/20 01:07:28;;;;;;;;;;;8.90;99.90;;;;;;5055195;28;19924;-70
2021/01/20 01:09:55;;;;;;;;;;;8.90;99.90;;;;;;5055404;28;20003;-70
2021/01/20 01:12:21;;;;;;;;;;;8.90;99.90;;;;;;5051501;28;20058;-70
2021/01/20 01:14:47;;;;;;;;;;;8.80;99.90;;;;;;5051232;28;20283;-70
2021/01/20 01:17:13;;;;;;;;;;;8.80;99.90;;;;;;5054501;28;20012;-70
2021/01/20 01:19:40;;;;;;;;;;;8.80;99.90;;;;;;5054806;28;20298;-70
2021/01/20 01:22:06;;;;;;;;;;;8.80;99.90;;;;;;5054474;28;19960;-70
2021/01/20 01:24:33;;;;;;;;;;;8.80;99.90;;;;;;5044765;28;19964;-70
2021/01/20 01:27:00;;;;;;;;;;;8.80;99.90;;;;;;5053940;28;19971;-70
2021/01/20 01:29:26;;;;;;;;;;;8.70;99.90;;;;;;5054368;28;20288;-70
2021/01/20 01:31:52;;;;;;;;;;;8.80;99.90;;;;;;5046350;28;20000;-71
2021/01/20 01:34:18;;;;;;;;;;;8.80;99.90;;;;;;5048315;28;20373;-70
2021/01/20 01:36:45;;;;;;;;;;;8.80;99.90;;;;;;5036916;28;19925;-70
2021/01/20 01:39:11;;;;;;;;;;;8.80;99.90;;;;;;5042279;28;19935;-70
2021/01/20 01:41:38;;;;;;;;;;;8.80;99.90;;;;;;5047441;28;19929;-70
2021/01/20 01:44:04;;;;;;;;;;;8.70;99.90;;;;;;5042899;28;19924;-70
2021/01/20 01:46:30;;;;;;;;;;;8.70;99.90;;;;;;5054421;28;20012;-70
2021/01/20 01:48:57;;;;;;;;;;;8.60;99.90;;;;;;5053412;28;19956;-70
2021/01/20 01:51:23;;;;;;;;;;;8.60;99.90;;;;;;5054186;28;20031;-70
2021/01/20 01:53:50;;;;;;;;;;;8.60;99.90;;;;;;5054135;28;19924;-70
2021/01/20 01:56:16;;;;;;;;;;;8.60;99.90;;;;;;5054036;28;19924;-70
2021/01/20 01:58:43;;;;;;;;;;;8.50;99.90;;;;;;5054260;28;19924;-70
2021/01/20 02:01:09;;;;;;;;;;;8.60;99.90;;;;;;5053903;28;20016;-70
2021/01/20 02:03:35;;;;;;;;;;;8.60;99.90;;;;;;5054463;28;19929;-70
2021/01/20 02:06:02;;;;;;;;;;;8.60;99.90;;;;;;5054355;28;19924;-70
2021/01/20 02:08:28;;;;;;;;;;;8.50;99.90;;;;;;5054766;28;20037;-70
2021/01/20 02:10:58;;;;;;;;;;;8.50;99.90;;;;;;5049980;28;19924;-69
2021/01/20 02:13:29;;;;;;;;;;;8.50;99.90;;;;;;5053518;28;19940;-69
2021/01/20 02:16:00;;;;;;;;;;;8.50;99.90;;;;;;5054261;28;20377;-70
2021/01/20 02:18:29;;;;;;;;;;;8.50;99.90;;;;;;5054085;28;20051;-70
2021/01/20 02:21:10;;;;;;;;;;;8.50;99.90;;;;;;5054338;28;19925;-70
2021/01/20 02:23:42;;;;;;;;;;;8.50;99.90;;;;;;5053945;28;19924;-70
2021/01/20 02:26:13;;;;;;;;;;;8.40;99.90;;;;;;5053918;28;19924;-70
2021/01/20 02:28:46;;;;;;;;;;;8.40;99.90;;;;;;5053683;28;19935;-70
2021/01/20 02:31:14;;;;;;;;;;;8.40;99.90;;;;;;5053999;28;20409;-70
2021/01/20 02:33:44;;;;;;;;;;;8.40;99.90;;;;;;5053636;28;20027;-69
2021/01/20 02:36:10;;;;;;;;;;;8.40;99.90;;;;;;5054028;28;20035;-70
2021/01/20 02:38:36;;;;;;;;;;;8.40;99.90;;;;;;5053764;28;20035;-70
2021/01/20 02:41:02;;;;;;;;;;;8.40;99.90;;;;;;5054117;28;20369;-70
2021/01/20 02:43:29;;;;;;;;;;;8.40;99.90;;;;;;5053459;28;20004;-70
2021/01/20 02:45:55;;;;;;;;;;;8.40;99.90;;;;;;5053848;28;20320;-70
2021/01/20 02:48:22;;;;;;;;;;;8.40;99.90;;;;;;5053327;28;19994;-70
2021/01/20 02:50:48;;;;;;;;;;;8.40;99.90;;;;;;5053894;28;20019;-70
2021/01/20 02:53:16;;;;;;;;;;;8.40;99.90;;;;;;5053608;28;19963;-69
2021/01/20 02:55:46;;;;;;;;;;;8.40;99.90;;;;;;5053299;28;20737;-69
2021/01/20 02:58:15;;;;;;;;;;;8.40;99.90;;;;;;5053496;28;20011;-70
2021/01/20 03:00:41;;;;;;;;;;;8.40;99.90;;;;;;5052551;28;19924;-69
2021/01/20 03:03:10;;;;;;;;;;;8.30;99.90;;;;;;5049624;28;19925;-70
2021/01/20 03:05:37;;;;;;;;;;;8.30;99.90;;;;;;5052836;28;19935;-70
2021/01/20 03:08:04;;;;;;;;;;;8.30;99.90;;;;;;5053530;28;20274;-69
2021/01/20 03:10:30;;;;;;;;;;;8.30;99.90;;;;;;5050818;28;19959;-69
2021/01/20 03:12:56;;;;;;;;;;;8.20;99.90;;;;;;5053444;28;20007;-70
2021/01/20 03:15:23;;;;;;;;;;;8.20;99.90;;;;;;5052748;28;20320;-70
2021/01/20 03:17:50;;;;;;;;;;;8.20;99.90;;;;;;5053319;28;20012;-69
2021/01/20 03:20:16;;;;;;;;;;;8.10;99.90;;;;;;5053459;28;20355;-70
2021/01/20 03:22:43;;;;;;;;;;;8.10;99.90;;;;;;5052517;28;19979;-70
2021/01/20 03:25:10;;;;;;;;;;;8.10;99.90;;;;;;5053110;28;20011;-70
2021/01/20 03:27:37;;;;;;;;;;;8.00;99.90;;;;;;5052614;28;19943;-70
2021/01/20 03:30:03;;;;;;;;;;;8.00;99.90;;;;;;5053010;28;19928;-69
2021/01/20 03:32:30;;;;;;;;;;;8.00;99.90;;;;;;5052238;28;20012;-70
2021/01/20 03:34:56;;;;;;;;;;;8.00;99.90;;;;;;5053096;28;20020;-70
2021/01/20 03:37:22;;;;;;;;;;;8.00;99.90;;;;;;5052707;28;19929;-69
2021/01/20 03:39:49;;;;;;;;;;;8.00;99.90;;;;;;5053017;28;19958;-70
2021/01/20 03:42:16;;;;;;;;;;;8.00;99.90;;;;;;5053018;28;20347;-70
2021/01/20 03:44:42;;;;;;;;;;;8.10;99.90;;;;;;5052296;28;20359;-70
2021/01/20 03:47:08;;;;;;;;;;;8.10;99.90;;;;;;5053030;28;19974;-70
2021/01/20 03:49:35;;;;;;;;;;;8.10;99.90;;;;;;5052447;28;20019;-69
2021/01/20 03:52:01;;;;;;;;;;;8.20;99.90;;;;;;5052708;28;20366;-70
2021/01/20 03:54:27;;;;;;;;;;;8.10;99.90;;;;;;5052549;28;19924;-70
2021/01/20 03:56:54;;;;;;;;;;;8.10;99.90;;;;;;5052872;28;19932;-69
2021/01/20 03:59:20;;;;;;;;;;;8.10;99.90;;;;;;5052627;28;19924;-70
2021/01/20 04:01:47;;;;;;;;;;;8.10;99.90;;;;;;5052665;28;20051;-70
2021/01/20 04:04:13;;;;;;;;;;;8.00;99.90;;;;;;5051796;28;19947;-70
2021/01/20 04:06:39;;;;;;;;;;;8.10;99.90;;;;;;5042856;28;20418;-69
2021/01/20 04:09:06;;;;;;;;;;;8.10;99.90;;;;;;5050791;28;19924;-68
2021/01/20 04:11:32;;;;;;;;;;;8.00;99.90;;;;;;5045518;28;19933;-76
2021/01/20 04:13:59;;;;;;;;;;;8.00;99.90;;;;;;5056626;28;20048;-71
2021/01/20 04:16:25;;;;;;;;;;;8.00;99.90;;;;;;5056228;28;20007;-71
2021/01/20 04:18:52;;;;;;;;;;;7.90;99.90;;;;;;5056484;28;19943;-71
2021/01/20 04:21:18;;;;;;;;;;;7.90;99.90;;;;;;5056673;28;20012;-71
2021/01/20 04:23:50;;;;;;;;;;;8.00;99.90;;;;;;5055820;28;20011;-71
2021/01/20 04:26:16;;;;;;;;;;;8.00;99.90;;;;;;5056315;28;20011;-71
2021/01/20 04:28:42;;;;;;;;;;;8.00;99.90;;;;;;5052077;28;20003;-71
2021/01/20 04:31:09;;;;;;;;;;;8.00;99.90;;;;;;5053181;28;19924;-71
2021/01/20 04:33:36;;;;;;;;;;;8.00;99.90;;;;;;5055048;28;19978;-71
2021/01/20 04:36:02;;;;;;;;;;;8.00;99.90;;;;;;5056552;28;20220;-71
2021/01/20 04:38:28;;;;;;;;;;;8.00;99.90;;;;;;5055841;28;19925;-71
2021/01/20 04:40:55;;;;;;;;;;;8.00;99.90;;;;;;5056356;28;20401;-71
2021/01/20 04:43:21;;;;;;;;;;;8.00;99.90;;;;;;5056033;28;19925;-71
2021/01/20 04:45:48;;;;;;;;;;;8.00;99.90;;;;;;5055476;28;20011;-71
2021/01/20 04:48:16;;;;;;;;;;;8.10;99.90;;;;;;5056092;28;19972;-71
2021/01/20 04:50:43;;;;;;;;;;;8.10;99.90;;;;;;5055635;28;20011;-71
2021/01/20 04:53:10;;;;;;;;;;;8.10;99.90;;;;;;5046486;28;20367;-71
2021/01/20 04:55:38;;;;;;;;;;;8.10;99.90;;;;;;5033442;28;20008;-71
2021/01/20 04:58:04;;;;;;;;;;;8.10;99.90;;;;;;5035109;28;20012;-71
2021/01/20 05:00:30;;;;;;;;;;;8.10;99.90;;;;;;5035628;28;20400;-71
2021/01/20 05:02:57;;;;;;;;;;;8.00;99.90;;;;;;5036125;28;20458;-71
2021/01/20 05:05:24;;;;;;;;;;;8.00;99.90;;;;;;5035873;28;19929;-71
2021/01/20 05:07:51;;;;;;;;;;;8.00;99.90;;;;;;5035327;28;19925;-71
2021/01/20 05:10:17;;;;;;;;;;;8.00;99.90;;;;;;5036252;28;19936;-71
2021/01/20 05:12:44;;;;;;;;;;;8.00;99.90;;;;;;5035402;28;20016;-71
2021/01/20 05:15:11;;;;;;;;;;;8.00;99.90;;;;;;5036096;28;20031;-71
2021/01/20 05:17:37;;;;;;;;;;;7.90;99.90;;;;;;5035411;28;20059;-71
2021/01/20 05:20:04;;;;;;;;;;;8.00;99.90;;;;;;5035870;28;20011;-71
2021/01/20 05:22:31;;;;;;;;;;;7.90;99.90;;;;;;5034712;28;20415;-71
2021/01/20 05:24:58;;;;;;;;;;;7.90;99.90;;;;;;5035540;28;19932;-71
2021/01/20 05:27:28;;;;;;;;;;;7.90;99.90;;;;;;5035558;28;19936;-71
2021/01/20 05:29:58;;;;;;;;;;;7.90;99.90;;;;;;5035401;28;20737;-71
2021/01/20 05:32:24;;;;;;;;;;;7.90;99.90;;;;;;5035646;28;20024;-71
2021/01/20 05:34:57;;;;;;;;;;;7.90;99.90;;;;;;5035166;28;20023;-71
2021/01/20 05:37:23;;;;;;;;;;;7.90;99.90;;;;;;5035508;28;19929;-70
2021/01/20 05:39:50;;;;;;;;;;;7.90;99.90;;;;;;5035087;28;19925;-70
2021/01/20 05:42:16;;;;;;;;;;;7.90;99.90;;;;;;5035553;28;19926;-70
2021/01/20 05:45:00;;;;;;;;;;;7.90;99.90;;;;;;5034914;28;20087;-72
2021/01/20 05:47:26;;;;;;;;;;;8.00;99.90;;;;;;5035448;28;20478;-71
2021/01/20 05:50:03;;;;;;;;;;;8.00;99.90;;;;;;5034950;28;19925;-71
2021/01/20 05:52:30;;;;;;;;;;;7.90;99.90;;;;;;5035166;28;20011;-70
2021/01/20 05:54:57;;;;;;;;;;;7.90;99.90;;;;;;5035005;28;19929;-70
2021/01/20 05:57:25;;;;;;;;;;;7.90;99.90;;;;;;5035102;28;20326;-70
2021/01/20 05:59:52;;;;;;;;;;;7.80;99.90;;;;;;5034645;28;20410;-70
2021/01/20 06:02:19;;;;;;;;;;;7.90;99.90;;;;;;5035110;28;20031;-71
2021/01/20 06:05:01;;;;;;;;;;;7.90;99.90;;;;;;5034574;28;20028;-70
2021/01/20 06:07:28;;;;;;;;;;;7.90;99.90;;;;;;5035013;28;19982;-71
2021/01/20 06:09:54;;;;;;;;;;;7.90;99.90;;;;;;5034445;28;20016;-71
2021/01/20 06:12:22;;;;;;;;;;;7.90;99.90;;;;;;5034983;28;19936;-71
2021/01/20 06:14:48;;;;;;;;;;;7.90;99.90;;;;;;5034219;28;19939;-71
2021/01/20 06:17:16;;;;;;;;;;;7.90;99.90;;;;;;5034687;28;19933;-71
2021/01/20 06:19:45;;;;;;;;;;;7.90;99.90;;;;;;5034350;28;20012;-71
2021/01/20 06:22:14;;;;;;;;;;;7.90;99.90;;;;;;5034695;28;19987;-71
2021/01/20 06:24:42;;;;;;;;;;;7.90;99.90;;;;;;5033982;28;20022;-71
2021/01/20 06:27:13;;;;;;;;;;;7.90;99.90;;;;;;5034624;28;20016;-71
2021/01/20 06:29:43;;;;;;;;;;;7.90;99.90;;;;;;5034077;28;19952;-71
2021/01/20 06:32:09;;;;;;;;;;;7.90;99.90;;;;;;5034516;28;19952;-71
2021/01/20 06:34:35;;;;;;;;;;;7.80;99.60;;;;;;5034099;28;20414;-71
2021/01/20 06:37:02;;;;;;;;;;;7.70;99.90;;;;;;5034218;28;20024;-71
2021/01/20 06:39:32;;;;;;;;;;;7.80;99.90;;;;;;5034389;28;20025;-70
2021/01/20 06:41:59;;;;;;;;;;;7.80;99.90;;;;;;5034012;28;20301;-71
2021/01/20 06:44:25;;;;;;;;;;;7.90;99.90;;;;;;5034159;28;20023;-71
2021/01/20 06:47:02;;;;;;;;;;;7.90;99.90;;;;;;5033712;28;20074;-71
2021/01/20 06:49:29;;;;;;;;;;;7.90;99.90;;;;;;5034181;28;19979;-71
2021/01/20 06:52:05;;;;;;;;;;;7.90;99.60;;;;;;5033457;28;20338;-70
2021/01/20 06:54:36;;;;;;;;;;;7.80;99.50;;;;;;5034123;28;19948;-71
2021/01/20 06:57:02;;;;;;;;;;;7.90;99.60;;;;;;5033793;28;20732;-71
2021/01/20 06:59:30;;;;;;;;;;;7.80;99.30;;;;;;5034039;28;20019;-71
2021/01/20 07:02:13;;;;;;;;;;;7.80;99.40;;;;;;5033571;28;19987;-71
2021/01/20 07:04:53;;;;;;;;;;;7.70;99.30;;;;;;5033359;28;19939;-70
2021/01/20 07:07:44;;;;;;;;;;;7.70;99.30;;;;;;5033719;28;19935;-71
2021/01/20 07:10:10;;;;;;;;;;;7.70;99.30;;;;;;5033235;28;20079;-70
2021/01/20 07:12:37;;;;;;;;;;;7.60;99.20;;;;;;5033663;28;19939;-71
2021/01/20 07:15:07;;;;;;;;;;;7.60;99.20;;;;;;5033062;28;20350;-71
2021/01/20 07:17:34;;;;;;;;;;;7.50;99.20;;;;;;5033597;28;19929;-69
2021/01/20 07:20:00;;;;;;;;;;;7.50;99.40;;;;;;5033352;28;20367;-70
2021/01/20 07:22:27;;;;;;;;;;;7.40;99.30;;;;;;5033428;28;20415;-70
2021/01/20 07:24:53;;;;;;;;;;;7.40;99.40;;;;;;5032970;28;20371;-71
2021/01/20 07:27:20;;;;;;;;;;;7.40;99.50;;;;;;5033542;28;19952;-70
2021/01/20 07:29:47;;;;;;;;;;;7.40;99.70;;;;;;5033457;28;20023;-70
2021/01/20 07:32:13;;;;;;;;;;;7.50;99.60;;;;;;5033177;28;19925;-71
2021/01/20 07:34:41;;;;;;;;;;;7.50;99.50;;;;;;5033496;28;20015;-70
2021/01/20 07:37:08;;;;;;;;;;;7.50;99.40;;;;;;5032719;28;20000;-71
2021/01/20 07:39:34;;;;;;;;;;;7.50;99.20;;;;;;5033518;28;19983;-71
2021/01/20 07:42:00;;;;;;;;;;;7.60;99.30;;;;;;5033005;28;20318;-71
2021/01/20 07:44:27;;;;;;;;;;;7.60;99.40;;;;;;5032964;28;19935;-71
2021/01/20 07:46:57;;;;;;;;;;;7.60;99.10;;;;;;5032465;28;19933;-71
2021/01/20 07:49:24;;;;;;;;;;;7.60;99.30;;;;;;5033273;28;20011;-71
2021/01/20 07:52:00;;;;;;;;;;;7.70;99.30;;;;;;5032601;28;19926;-71
2021/01/20 07:54:26;;;;;;;;;;;7.80;99.30;;;;;;5047954;28;20066;-71
2021/01/20 07:56:52;;;;;;;;;;;7.70;98.90;;;;;;5048538;28;20003;-71
2021/01/20 07:59:19;;;;;;;;;;;7.80;99.00;;;;;;5052041;28;19983;-71
2021/01/20 08:01:46;;;;;;;;;;;7.80;99.00;;;;;;5052161;28;19924;-71
2021/01/20 08:04:17;;;;;;;;;;;7.80;99.00;;;;;;5051707;28;20016;-71
2021/01/20 08:06:44;;;;;;;;;;;7.80;98.90;;;;;;5051952;28;20003;-71
2021/01/20 08:09:11;;;;;;;;;;;7.80;98.80;;;;;;5051913;28;19963;-71
2021/01/20 08:11:37;;;;;;;;;;;7.90;98.90;;;;;;5052991;28;20004;-71
2021/01/20 08:14:04;;;;;;;;;;;8.00;99.00;;;;;;5052186;28;19924;-71
2021/01/20 08:16:32;;;;;;;;;;;8.00;98.80;;;;;;5052998;28;20008;-71
2021/01/20 08:18:58;;;;;;;;;;;8.10;98.70;;;;;;5052601;28;19936;-71
2021/01/20 08:21:25;;;;;;;;;;;8.10;98.30;;;;;;5052820;28;20011;-71
2021/01/20 08:23:53;;;;;;;;;;;8.10;98.40;;;;;;5052842;28;20311;-70
2021/01/20 08:26:23;;;;;;;;;;;8.10;98.30;;;;;;5052425;28;19925;-70
2021/01/20 08:29:06;;;;;;;;;;;8.20;98.10;;;;;;5052556;28;19936;-69
2021/01/20 08:31:32;;;;;;;;;;;8.10;98.00;;;;;;5041252;28;20007;-70
2021/01/20 08:34:18;;;;;;;;;;;8.20;98.10;;;;;;5052503;28;20011;-70
2021/01/20 08:36:55;;;;;;;;;;;8.20;98.10;;;;;;5052208;28;19935;-70
2021/01/20 08:39:21;;;;;;;;;;;8.30;97.90;;;;;;5051081;28;20032;-70
2021/01/20 08:42:06;;;;;;;;;;;8.30;97.90;;;;;;5052208;28;20406;-69
2021/01/20 08:44:33;;;;;;;;;;;8.40;97.90;;;;;;5052469;28;19970;-70
2021/01/20 08:46:59;;;;;;;;;;;8.40;97.70;;;;;;5052196;28;19925;-70
2021/01/20 08:49:25;;;;;;;;;;;8.50;97.80;;;;;;5052539;28;19939;-71
2021/01/20 08:51:57;;;;;;;;;;;8.50;97.60;;;;;;5051845;28;20004;-71
2021/01/20 08:54:24;;;;;;;;;;;8.50;97.40;;;;;;5052069;28;20011;-71
2021/01/20 08:56:50;;;;;;;;;;;8.60;97.40;;;;;;5051834;28;20012;-71
2021/01/20 08:59:16;;;;;;;;;;;8.60;97.30;;;;;;5055779;28;19936;-71
2021/01/20 09:01:43;;;;;;;;;;;8.70;97.30;;;;;;5055929;28;20296;-71
2021/01/20 09:04:09;;;;;;;;;;;8.80;97.30;;;;;;5055962;28;19932;-71
2021/01/20 09:06:36;;;;;;;;;;;8.80;97.20;;;;;;5055943;28;19924;-71
2021/01/20 09:09:02;;;;;;;;;;;8.80;97.00;;;;;;5055393;28;20015;-71
2021/01/20 09:11:28;;;;;;;;;;;8.80;96.90;;;;;;5055858;28;20425;-70
2021/01/20 09:13:55;;;;;;;;;;;8.80;97.00;;;;;;5055484;28;20015;-70
2021/01/20 09:16:27;;;;;;;;;;;8.80;96.80;;;;;;5055749;28;20073;-70
2021/01/20 09:18:54;;;;;;;;;;;8.90;96.80;;;;;;5055248;28;19956;-70
2021/01/20 09:21:20;;;;;;;;;;;8.90;96.90;;;;;;5055853;28;20015;-70
2021/01/20 09:23:48;;;;;;;;;;;9.00;96.90;;;;;;5055232;28;20028;-70
2021/01/20 09:26:15;;;;;;;;;;;9.00;96.50;;;;;;5055646;28;20032;-70
2021/01/20 09:28:41;;;;;;;;;;;9.00;96.50;;;;;;5055411;28;20021;-70
2021/01/20 09:31:08;;;;;;;;;;;9.00;96.50;;;;;;5055593;28;19925;-70
2021/01/20 09:33:34;;;;;;;;;;;9.00;96.20;;;;;;5055521;28;20009;-70
2021/01/20 09:36:01;;;;;;;;;;;9.00;96.10;;;;;;5055104;28;20418;-70
2021/01/20 09:38:27;;;;;;;;;;;9.00;96.20;;;;;;5055242;28;20007;-70
2021/01/20 09:40:54;;;;;;;;;;;9.10;96.20;;;;;;5055127;28;20403;-70
2021/01/20 09:43:23;;;;;;;;;;;9.10;96.20;;;;;;5055474;28;19925;-70
2021/01/20 09:45:49;;;;;;;;;;;9.10;96.00;;;;;;5054507;28;19952;-70
2021/01/20 09:48:16;;;;;;;;;;;9.20;96.10;;;;;;5055388;28;19935;-70
2021/01/20 09:50:44;;;;;;;;;;;9.10;95.80;;;;;;5054743;28;20279;-70
2021/01/20 09:53:12;;;;;;;;;;;9.20;95.90;;;;;;5055207;28;19964;-70
2021/01/20 09:55:40;;;;;;;;;;;9.20;95.60;;;;;;5054390;28;20220;-70
2021/01/20 09:58:06;;;;;;;;;;;9.20;95.60;;;;;;5046471;28;20023;-70
2021/01/20 10:00:34;;;;;;;;;;;9.10;95.40;;;;;;5054749;28;19986;-70
2021/01/20 10:03:02;;;;;;;;;;;9.20;95.50;;;;;;5054691;28;19925;-70
2021/01/20 10:05:28;;;;;;;;;;;9.20;95.50;;;;;;5054740;28;19929;-70
2021/01/20 10:07:54;;;;;;;;;;;9.30;95.70;;;;;;5054141;28;20012;-70
2021/01/20 10:10:21;;;;;;;;;;;9.30;95.70;;;;;;5054734;28;19925;-70
2021/01/20 10:12:49;;;;;;;;;;;9.30;95.60;;;;;;5054369;28;19935;-71
2021/01/20 10:15:16;;;;;;;;;;;9.40;95.60;;;;;;5054661;28;19929;-69
2021/01/20 10:17:42;;;;;;;;;;;9.50;95.50;;;;;;5054784;28;20007;-69
2021/01/20 10:20:08;;;;;;;;;;;9.50;95.30;;;;;;5054273;28;20720;-71
2021/01/20 10:22:35;;;;;;;;;;;9.60;95.30;;;;;;5054577;28;19996;-70
2021/01/20 10:25:01;;;;;;;;;;;9.60;95.10;;;;;;5054264;28;19925;-70
2021/01/20 10:27:28;;;;;;;;;;;9.60;95.10;;;;;;5054378;28;20003;-70
2021/01/20 10:29:54;;;;;;;;;;;9.60;95.10;;;;;;5054034;28;19925;-70
2021/01/20 10:32:21;;;;;;;;;;;9.70;95.00;;;;;;5054358;28;20008;-69
2021/01/20 10:34:47;;;;;;;;;;;9.70;94.40;;;;;;5053868;28;20011;-70
2021/01/20 10:37:13;;;;;;;;;;;9.80;94.50;;;;;;5050307;28;20347;-69
2021/01/20 10:39:39;;;;;;;;;;;9.90;94.60;;;;;;5034161;28;20336;-70
2021/01/20 10:42:06;;;;;;;;;;;9.90;94.50;;;;;;5033326;28;19933;-69
2021/01/20 10:44:33;;;;;;;;;;;10.00;93.90;;;;;;5033730;28;19929;-69
2021/01/20 10:46:59;;;;;;;;;;;10.10;93.70;;;;;;5033658;28;20012;-70
2021/01/20 10:49:26;;;;;;;;;;;10.10;93.40;;;;;;5034233;28;20012;-69
2021/01/20 10:51:52;;;;;;;;;;;10.10;93.30;;;;;;5033413;28;19925;-69
2021/01/20 10:54:18;;;;;;;;;;;10.20;93.30;;;;;;5034172;28;19979;-70
2021/01/20 10:56:45;;;;;;;;;;;10.20;93.00;;;;;;5033929;28;20016;-70
2021/01/20 10:59:11;;;;;;;;;;;10.20;92.60;;;;;;5033808;28;20011;-71
2021/01/20 11:01:38;;;;;;;;;;;10.20;92.80;;;;;;5033461;28;20066;-71
2021/01/20 11:04:04;;;;;;;;;;;10.30;92.60;;;;;;5033875;28;20270;-71
2021/01/20 11:06:31;;;;;;;;;;;10.30;92.60;;;;;;5033400;28;20008;-70
2021/01/20 11:08:59;;;;;;;;;;;10.40;92.40;;;;;;5033868;28;20007;-70
2021/01/20 11:11:26;;;;;;;;;;;10.40;92.10;;;;;;5033259;28;20003;-71
2021/01/20 11:13:52;;;;;;;;;;;10.40;92.10;;;;;;5033500;28;20411;-70
2021/01/20 11:16:18;;;;;;;;;;;10.50;92.00;;;;;;5033060;28;20007;-70
2021/01/20 11:18:45;;;;;;;;;;;10.50;91.80;;;;;;5033752;28;19936;-71
2021/01/20 11:21:14;;;;;;;;;;;10.50;91.60;;;;;;5032911;28;19936;-71
2021/01/20 11:23:41;;;;;;;;;;;10.50;91.60;;;;;;5033194;28;20016;-70
2021/01/20 11:26:08;;;;;;;;;;;10.60;91.60;;;;;;5033448;28;19940;-70
2021/01/20 11:28:35;;;;;;;;;;;10.60;91.20;;;;;;5032972;28;20023;-71
2021/01/20 11:31:01;;;;;;;;;;;10.50;91.40;;;;;;5033363;28;19932;-70
2021/01/20 11:33:27;;;;;;;;;;;10.60;91.50;;;;;;5033028;28;20403;-71
2021/01/20 11:35:54;;;;;;;;;;;10.70;91.50;;;;;;5033366;28;20365;-71
2021/01/20 11:38:20;;;;;;;;;;;10.70;91.30;;;;;;5033085;28;20445;-70
2021/01/20 11:40:46;;;;;;;;;;;10.60;91.00;;;;;;5033147;28;20015;-70
2021/01/20 11:43:13;;;;;;;;;;;10.70;91.30;;;;;;5033324;28;19940;-70
2021/01/20 11:45:39;;;;;;;;;;;10.70;91.00;;;;;;5032855;28;20024;-70
2021/01/20 11:48:07;;;;;;;;;;;10.70;91.10;;;;;;5033286;28;19979;-70
2021/01/20 11:50:33;;;;;;;;;;;10.70;91.00;;;;;;5032946;28;19990;-70
2021/01/20 11:53:00;;;;;;;;;;;10.70;91.10;;;;;;5033457;28;20327;-70
2021/01/20 11:55:27;;;;;;;;;;;10.80;91.40;;;;;;5032548;28;20024;-70
2021/01/20 11:57:53;;;;;;;;;;;10.70;91.10;;;;;;5033370;28;20016;-70
2021/01/20 12:00:20;;;;;;;;;;;10.70;91.40;;;;;;5049089;28;20016;-70
2021/01/20 12:02:46;;;;;;;;;;;10.80;91.60;;;;;;5052630;28;20063;-70
2021/01/20 12:05:14;;;;;;;;;;;10.90;91.70;;;;;;5052817;28;20019;-70
2021/01/20 12:07:43;;;;;;;;;;;10.90;91.70;;;;;;5052271;28;19933;-69
2021/01/20 12:10:10;;;;;;;;;;;10.90;91.50;;;;;;5052921;28;19979;-70
2021/01/20 12:12:37;;;;;;;;;;;10.90;91.60;;;;;;5056167;28;20032;-69
2021/01/20 12:15:03;;;;;;;;;;;11.00;91.50;;;;;;5052585;28;19931;-71
2021/01/20 12:17:30;;;;;;;;;;;11.00;91.50;;;;;;5052286;28;20015;-71
2021/01/20 12:19:56;;;;;;;;;;;11.00;91.50;;;;;;5052932;28;19996;-71
2021/01/20 12:22:23;;;;;;;;;;;11.00;91.10;;;;;;5052268;28;20008;-71
2021/01/20 12:24:49;;;;;;;;;;;11.00;91.20;;;;;;5052550;28;19925;-71
2021/01/20 12:27:16;;;;;;;;;;;11.00;91.10;;;;;;5052610;28;20070;-71
2021/01/20 12:29:42;;;;;;;;;;;11.00;91.00;;;;;;5052123;28;20062;-71
2021/01/20 12:32:08;;;;;;;;;;;11.00;90.70;;;;;;5054692;28;19925;-71
2021/01/20 12:34:35;;;;;;;;;;;11.10;90.70;;;;;;5056252;28;20325;-71
2021/01/20 12:37:01;;;;;;;;;;;11.10;90.70;;;;;;5056530;28;20398;-70
2021/01/20 12:39:27;;;;;;;;;;;11.00;90.30;;;;;;5056198;28;20541;-71
2021/01/20 12:41:53;;;;;;;;;;;11.10;90.60;;;;;;5056720;28;20321;-70
2021/01/20 12:44:21;;;;;;;;;;;11.10;90.30;;;;;;5056314;28;19939;-70
2021/01/20 12:46:47;;;;;;;;;;;11.10;90.30;;;;;;5055918;28;19990;-69
2021/01/20 12:49:13;;;;;;;;;;;11.10;90.10;;;;;;5056467;28;20098;-70
2021/01/20 12:51:39;;;;;;;;;;;11.20;90.10;;;;;;5055707;28;20389;-70
2021/01/20 12:54:06;;;;;;;;;;;11.20;90.00;;;;;;5056137;28;20024;-70
2021/01/20 12:56:32;;;;;;;;;;;11.20;90.10;;;;;;5055653;28;20013;-70
2021/01/20 12:58:58;;;;;;;;;;;11.30;90.10;;;;;;5056102;28;20011;-71
2021/01/20 13:01:25;;;;;;;;;;;11.40;90.00;;;;;;5056056;28;20008;-70
2021/01/20 13:03:52;;;;;;;;;;;11.30;89.20;;;;;;5055704;28;19967;-71
2021/01/20 13:06:18;;;;;;;;;;;11.30;89.10;;;;;;5056191;28;20015;-70
2021/01/20 13:08:44;;;;;;;;;;;11.30;89.20;;;;;;5055695;28;20007;-71
2021/01/20 13:11:10;;;;;;;;;;;11.30;89.40;;;;;;5055659;28;19967;-71
2021/01/20 13:13:36;;;;;;;;;;;11.30;89.70;;;;;;5055376;28;20008;-70
2021/01/20 13:16:03;;;;;;;;;;;11.30;89.20;;;;;;5055319;28;20040;-71
2021/01/20 13:18:31;;;;;;;;;;;11.40;89.40;;;;;;5054651;28;20004;-71
2021/01/20 13:20:57;;;;;;;;;;;11.40;89.70;;;;;;5054700;28;19932;-71
2021/01/20 13:23:24;;;;;;;;;;;11.40;89.50;;;;;;5055674;28;20058;-71
2021/01/20 13:25:50;;;;;;;;;;;11.50;89.60;;;;;;5055333;28;19932;-71
2021/01/20 13:28:16;;;;;;;;;;;11.50;89.10;;;;;;5055520;28;20008;-71
2021/01/20 13:30:42;;;;;;;;;;;11.40;88.90;;;;;;5055090;28;20015;-71
2021/01/20 13:33:08;;;;;;;;;;;11.40;88.40;;;;;;5055818;28;20314;-71
2021/01/20 13:35:39;;;;;;;;;;;11.40;89.10;;;;;;5054806;28;19936;-71
2021/01/20 13:38:05;;;;;;;;;;;11.40;88.60;;;;;;5055256;28;20016;-71
2021/01/20 13:40:32;;;;;;;;;;;11.40;88.50;;;;;;5055033;28;19929;-71
2021/01/20 13:42:58;;;;;;;;;;;11.40;88.50;;;;;;5054656;28;20008;-71
2021/01/20 13:45:24;;;;;;;;;;;11.40;88.50;;;;;;5055072;28;19995;-71
2021/01/20 13:47:50;;;;;;;;;;;11.40;88.60;;;;;;5054919;28;19998;-71
2021/01/20 13:50:17;;;;;;;;;;;11.50;88.50;;;;;;5050960;28;20008;-71
2021/01/20 13:52:44;;;;;;;;;;;11.50;88.10;;;;;;5034829;28;20012;-71
2021/01/20 13:55:10;;;;;;;;;;;11.50;87.90;;;;;;5035223;28;20000;-70
2021/01/20 13:57:36;;;;;;;;;;;11.40;87.60;;;;;;5034682;28;19936;-71
2021/01/20 14:00:04;;;;;;;;;;;11.40;87.80;;;;;;5035010;28;19925;-70
2021/01/20 14:02:30;;;;;;;;;;;11.40;87.60;;;;;;5034880;28;20370;-70
2021/01/20 14:04:56;;;;;;;;;;;11.40;87.80;;;;;;5042895;28;20408;-70
2021/01/20 14:07:23;;;;;;;;;;;11.40;88.60;;;;;;5034987;28;19925;-71
2021/01/20 14:09:50;;;;;;;;;;;11.40;87.90;;;;;;5034317;28;20272;-71
2021/01/20 14:12:16;;;;;;;;;;;11.40;88.10;;;;;;5034826;28;19925;-71
2021/01/20 14:14:42;;;;;;;;;;;11.40;87.70;;;;;;5034509;28;19941;-71
2021/01/20 14:17:09;;;;;;;;;;;11.50;88.00;;;;;;5034825;28;19939;-71
2021/01/20 14:19:35;;;;;;;;;;;11.50;87.80;;;;;;5034449;28;20415;-71
2021/01/20 14:22:01;;;;;;;;;;;11.40;87.90;;;;;;5034693;28;20028;-71
2021/01/20 14:24:27;;;;;;;;;;;11.40;88.00;;;;;;5034521;28;19932;-71
2021/01/20 14:26:56;;;;;;;;;;;11.50;88.10;;;;;;5034153;28;19933;-69